createdAt,value
2019-01-10T00:06:04.503Z,101294.09
2019-01-10T00:08:30.378Z,101295.00
2019-01-10T00:10:56.295Z,101303.61
2019-01-10T00:13:22.159Z,101308.42
2019-01-10T00:15:48.208Z,101308.34
2019-01-10T00:18:14.108Z,101302.75
2019-01-10T00:20:40.021Z,101307.93
2019-01-10T00:23:05.890Z,101308.81
2019-01-10T00:25:31.822Z,101307.95
2019-01-10T00:27:57.699Z,101308.78
2019-01-10T00:30:23.880Z,101312.72
2019-01-10T00:32:49.754Z,101314.84
2019-01-10T00:35:15.650Z,101312.66
2019-01-10T00:37:41.561Z,101313.06
2019-01-10T00:40:49.103Z,101324.27
2019-01-10T00:43:15.013Z,101331.22
2019-01-10T00:45:40.897Z,101329.12
2019-01-10T00:48:06.805Z,101327.70
2019-01-10T00:50:32.661Z,101340.73
2019-01-10T00:52:58.589Z,101335.56
2019-01-10T00:55:24.474Z,101338.21
2019-01-10T00:57:50.411Z,101335.13
2019-01-10T01:00:36.195Z,101335.50
2019-01-10T01:03:02.147Z,101346.67
2019-01-10T01:05:28.042Z,101344.17
2019-01-10T01:07:53.916Z,101348.38
2019-01-10T01:11:01.472Z,101356.16
2019-01-10T01:13:27.440Z,101351.04
2019-01-10T01:15:53.358Z,101355.78
2019-01-10T01:18:19.222Z,101361.49
2019-01-10T01:20:45.126Z,101357.88
2019-01-10T01:23:11.006Z,101364.80
2019-01-10T01:25:36.922Z,101370.06
2019-01-10T01:28:02.801Z,101374.79
2019-01-10T01:30:28.701Z,101377.42
2019-01-10T01:32:54.603Z,101380.42
2019-01-10T01:35:21.700Z,101381.30
2019-01-10T01:37:48.268Z,101390.92
2019-01-10T01:43:28.382Z,101392.61
2019-01-10T01:45:54.266Z,101394.80
2019-01-10T01:48:20.177Z,101392.69
2019-01-10T01:50:46.040Z,101402.17
2019-01-10T01:53:11.947Z,101403.73
2019-01-10T01:55:37.815Z,101402.97
2019-01-10T01:58:03.724Z,101412.41
2019-01-10T02:00:29.690Z,101412.39
2019-01-10T02:02:55.603Z,101417.99
2019-01-10T02:05:21.592Z,101418.09
2019-01-10T02:10:54.765Z,101427.55
2019-01-10T02:13:20.624Z,101434.77
2019-01-10T02:15:46.567Z,101435.63
2019-01-10T02:18:12.432Z,101440.74
2019-01-10T02:20:38.325Z,101439.06
2019-01-10T02:23:04.215Z,101439.23
2019-01-10T02:28:03.947Z,101444.06
2019-01-10T02:30:29.910Z,101447.56
2019-01-10T02:32:55.771Z,101441.08
2019-01-10T02:35:41.541Z,101452.81
2019-01-10T02:38:07.409Z,101445.79
2019-01-10T02:40:33.292Z,101445.89
2019-01-10T02:42:59.197Z,101450.67
2019-01-10T02:45:25.068Z,101458.02
2019-01-10T02:47:50.957Z,101467.41
2019-01-10T02:50:58.457Z,101463.09
2019-01-10T02:53:24.406Z,101473.38
2019-01-10T02:55:50.262Z,101475.52
2019-01-10T02:58:16.192Z,101475.21
2019-01-10T03:00:42.044Z,101482.47
2019-01-10T03:03:07.974Z,101477.55
2019-01-10T03:05:33.844Z,101472.62
2019-01-10T03:07:59.712Z,101483.11
2019-01-10T03:10:25.824Z,101492.66
2019-01-10T03:12:51.922Z,101487.41
2019-01-10T03:15:17.932Z,101491.66
2019-01-10T03:17:43.807Z,101493.30
2019-01-10T03:20:52.719Z,101484.63
2019-01-10T03:23:19.143Z,101494.28
2019-01-10T03:25:45.045Z,101496.38
2019-01-10T03:28:10.920Z,101494.31
2019-01-10T03:30:36.849Z,101496.00
2019-01-10T03:33:02.697Z,101497.56
2019-01-10T03:35:28.598Z,101499.89
2019-01-10T03:37:54.512Z,101495.18
2019-01-10T03:40:20.585Z,101497.40
2019-01-10T03:42:46.468Z,101498.86
2019-01-10T03:45:53.996Z,101495.98
2019-01-10T03:48:19.902Z,101493.39
2019-01-10T03:50:45.777Z,101495.98
2019-01-10T03:53:11.747Z,101486.37
2019-01-10T03:55:37.663Z,101494.20
2019-01-10T03:58:03.567Z,101497.56
2019-01-10T04:00:29.439Z,101494.97
2019-01-10T04:02:55.472Z,101494.91
2019-01-10T04:05:21.321Z,101497.34
2019-01-10T04:07:47.238Z,101497.44
2019-01-10T04:13:26.867Z,101511.22
2019-01-10T04:15:52.777Z,101510.64
2019-01-10T04:18:18.641Z,101511.02
2019-01-10T04:20:44.588Z,101504.49
2019-01-10T04:23:10.460Z,101503.09
2019-01-10T04:25:36.376Z,101510.39
2019-01-10T04:28:02.318Z,101509.06
2019-01-10T04:30:28.266Z,101503.56
2019-01-10T04:32:54.137Z,101515.23
2019-01-10T04:35:20.024Z,101512.23
2019-01-10T04:37:45.895Z,101504.86
2019-01-10T04:40:53.432Z,101509.01
2019-01-10T04:43:19.333Z,101512.52
2019-01-10T04:45:45.248Z,101519.52
2019-01-10T04:48:11.111Z,101514.75
2019-01-10T04:50:37.007Z,101521.36
2019-01-10T04:53:02.887Z,101521.43
2019-01-10T04:55:28.778Z,101527.48
2019-01-10T04:57:54.682Z,101525.86
2019-01-10T05:01:02.221Z,101526.25
2019-01-10T05:03:28.114Z,101524.52
2019-01-10T05:05:54.000Z,101533.35
2019-01-10T05:08:19.891Z,101528.13
2019-01-10T05:10:45.755Z,101527.66
2019-01-10T05:13:11.665Z,101525.52
2019-01-10T05:15:37.565Z,101522.02
2019-01-10T05:18:03.496Z,101525.00
2019-01-10T05:20:29.362Z,101526.80
2019-01-10T05:22:55.267Z,101524.27
2019-01-10T05:25:21.130Z,101521.27
2019-01-10T05:27:47.024Z,101521.19
2019-01-10T05:30:32.798Z,101532.84
2019-01-10T05:32:58.775Z,101527.67
2019-01-10T05:35:24.667Z,101531.91
2019-01-10T05:37:50.535Z,101532.59
2019-01-10T05:40:16.461Z,101527.19
2019-01-10T05:42:42.324Z,101538.03
2019-01-10T05:45:49.860Z,101541.95
2019-01-10T05:48:15.784Z,101539.41
2019-01-10T05:50:43.732Z,101537.22
2019-01-10T05:53:09.509Z,101544.17
2019-01-10T05:55:35.416Z,101542.55
2019-01-10T05:58:01.286Z,101549.48
2019-01-10T06:00:27.192Z,101547.70
2019-01-10T06:02:53.214Z,101543.41
2019-01-10T06:05:19.090Z,101544.64
2019-01-10T06:07:44.970Z,101547.70
2019-01-10T06:10:30.742Z,101548.90
2019-01-10T06:12:56.644Z,101556.37
2019-01-10T06:16:04.212Z,101559.57
2019-01-10T06:18:30.114Z,101565.06
2019-01-10T06:20:56.038Z,101569.30
2019-01-10T06:23:21.919Z,101569.32
2019-01-10T06:25:47.847Z,101582.28
2019-01-10T06:28:13.761Z,101578.34
2019-01-10T06:30:39.639Z,101586.27
2019-01-10T06:33:05.543Z,101583.31
2019-01-10T06:35:31.406Z,101578.14
2019-01-10T06:37:57.302Z,101578.95
2019-01-10T06:40:23.189Z,101585.51
2019-01-10T06:42:49.091Z,101591.09
2019-01-10T06:45:56.596Z,101597.15
2019-01-10T06:48:22.542Z,101600.34
2019-01-10T06:50:48.402Z,101606.98
2019-01-10T06:53:14.309Z,101607.52
2019-01-10T06:55:40.188Z,101610.36
2019-01-10T06:58:06.107Z,101616.02
2019-01-10T07:00:31.975Z,101608.31
2019-01-10T07:02:57.906Z,101610.10
2019-01-10T07:05:23.793Z,101610.78
2019-01-10T07:07:56.329Z,101610.78
2019-01-10T07:10:59.106Z,101604.58
2019-01-10T07:13:25.044Z,101608.98
2019-01-10T07:15:50.992Z,101610.98
2019-01-10T07:18:16.858Z,101620.43
2019-01-10T07:20:42.762Z,101621.67
2019-01-10T07:23:08.638Z,101628.99
2019-01-10T07:25:34.543Z,101634.11
2019-01-10T07:28:40.177Z,101631.48
2019-01-10T07:34:06.594Z,101636.78
2019-01-10T07:36:32.521Z,101641.50
2019-01-10T07:38:58.392Z,101644.05
2019-01-10T07:41:24.302Z,101641.62
2019-01-10T07:43:50.176Z,101651.06
2019-01-10T07:46:16.076Z,101646.75
2019-01-10T07:51:15.416Z,101648.05
2019-01-10T07:53:41.337Z,101654.82
2019-01-10T07:56:07.244Z,101655.89
2019-01-10T07:58:33.205Z,101652.83
2019-01-10T08:00:59.144Z,101654.23
2019-01-10T08:03:25.113Z,101662.59
2019-01-10T08:05:51.026Z,101662.59
2019-01-10T08:08:16.940Z,101660.41
2019-01-10T08:10:42.901Z,101671.87
2019-01-10T08:13:08.892Z,101670.09
2019-01-10T08:15:34.779Z,101675.42
2019-01-10T08:18:00.711Z,101677.08
2019-01-10T08:20:26.582Z,101674.44
2019-01-10T08:22:52.488Z,101677.73
2019-01-10T08:25:18.364Z,101674.15
2019-01-10T08:27:44.309Z,101686.38
2019-01-10T08:30:30.065Z,101683.65
2019-01-10T08:32:56.033Z,101679.64
2019-01-10T08:35:21.996Z,101691.37
2019-01-10T08:37:47.867Z,101695.47
2019-01-10T08:40:13.789Z,101701.81
2019-01-10T08:42:39.663Z,101697.59
2019-01-10T08:45:47.204Z,101695.23
2019-01-10T08:48:14.891Z,101706.51
2019-01-10T08:50:40.972Z,101708.90
2019-01-10T08:53:06.815Z,101707.87
2019-01-10T08:55:32.743Z,101712.51
2019-01-10T08:57:58.609Z,101729.47
2019-01-10T09:00:24.513Z,101721.98
2019-01-10T09:02:50.381Z,101723.26
2019-01-10T09:05:16.286Z,101726.81
2019-01-10T09:10:55.953Z,101738.91
2019-01-10T09:13:21.826Z,101737.75
2019-01-10T09:15:47.742Z,101730.59
2019-01-10T09:18:13.608Z,101739.86
2019-01-10T09:20:39.516Z,101735.34
2019-01-10T09:23:05.382Z,101740.59
2019-01-10T09:25:31.256Z,101739.79
2019-01-10T09:27:57.169Z,101739.08
2019-01-10T09:30:23.040Z,101738.20
2019-01-10T09:32:48.950Z,101733.88
2019-01-10T09:35:15.023Z,101740.80
2019-01-10T09:37:40.901Z,101741.28
2019-01-10T09:40:48.439Z,101742.14
2019-01-10T09:43:14.401Z,101739.05
2019-01-10T09:45:43.469Z,101748.66
2019-01-10T09:48:08.083Z,101748.62
2019-01-10T09:50:33.957Z,101750.44
2019-01-10T09:52:59.870Z,101746.53
2019-01-10T09:55:25.758Z,101754.08
2019-01-10T09:57:51.672Z,101751.02
2019-01-10T10:00:59.215Z,101759.81
2019-01-10T10:03:25.127Z,101762.02
2019-01-10T10:05:51.043Z,101758.69
2019-01-10T10:08:16.943Z,101757.81
2019-01-10T10:10:42.828Z,101756.48
2019-01-10T10:13:08.734Z,101756.55
2019-01-10T10:15:34.599Z,101763.59
2019-01-10T10:18:00.537Z,101759.69
2019-01-10T10:20:26.407Z,101764.83
2019-01-10T10:22:52.305Z,101760.44
2019-01-10T10:25:18.170Z,101759.09
2019-01-10T10:27:44.088Z,101771.16
2019-01-10T10:30:51.623Z,101766.34
2019-01-10T10:33:17.575Z,101775.02
2019-01-10T10:35:43.450Z,101765.36
2019-01-10T10:38:09.357Z,101768.63
2019-01-10T10:40:35.261Z,101771.47
2019-01-10T10:43:01.181Z,101769.93
2019-01-10T10:45:27.044Z,101768.89
2019-01-10T10:47:52.974Z,101769.33
2019-01-10T10:51:00.511Z,101771.67
2019-01-10T10:53:26.454Z,101772.91
2019-01-10T10:55:52.371Z,101765.73
2019-01-10T10:58:18.251Z,101770.36
2019-01-10T11:00:44.157Z,101769.81
2019-01-10T11:03:10.066Z,101759.91
2019-01-10T11:05:36.138Z,101759.06
2019-01-10T11:08:02.041Z,101762.28
2019-01-10T11:10:27.905Z,101760.79
2019-01-10T11:12:53.801Z,101759.73
2019-01-10T11:15:19.686Z,101756.02
2019-01-10T11:18:27.246Z,101748.20
2019-01-10T11:20:53.257Z,101752.76
2019-01-10T11:23:19.174Z,101752.09
2019-01-10T11:25:45.071Z,101747.50
2019-01-10T11:28:10.981Z,101755.72
2019-01-10T11:30:36.909Z,101769.05
2019-01-10T11:33:02.780Z,101749.98
2019-01-10T11:35:28.683Z,101746.67
2019-01-10T11:37:54.574Z,101751.83
2019-01-10T11:42:54.001Z,101746.67
2019-01-10T11:46:01.544Z,101747.68
2019-01-10T11:48:27.488Z,101751.61
2019-01-10T11:50:54.030Z,101753.50
2019-01-10T11:53:19.903Z,101745.98
2019-01-10T11:55:45.818Z,101751.01
2019-01-10T11:58:11.688Z,101745.42
2019-01-10T12:00:37.593Z,101741.17
2019-01-10T12:03:03.472Z,101741.23
2019-01-10T12:05:29.330Z,101735.97
2019-01-10T12:07:55.240Z,101735.16
2019-01-10T12:13:08.645Z,101734.56
2019-01-10T12:15:34.513Z,101728.65
2019-01-10T12:20:54.410Z,101724.51
2019-01-10T12:23:20.320Z,101723.53
2019-01-10T12:25:46.198Z,101716.09
2019-01-10T12:28:12.104Z,101719.75
2019-01-10T12:30:38.065Z,101716.03
2019-01-10T12:33:03.983Z,101709.84
2019-01-10T12:35:29.865Z,101699.91
2019-01-10T12:37:55.827Z,101712.44
2019-01-10T12:40:21.777Z,101702.03
2019-01-10T12:42:47.646Z,101705.84
2019-01-10T12:45:55.186Z,101708.05
2019-01-10T12:48:21.139Z,101703.33
2019-01-10T12:50:47.000Z,101700.05
2019-01-10T12:53:12.881Z,101702.52
2019-01-10T12:55:38.798Z,101707.84
2019-01-10T12:58:04.694Z,101709.53
2019-01-10T13:00:30.708Z,101714.14
2019-01-10T13:02:56.597Z,101711.42
2019-01-10T13:05:22.508Z,101707.50
2019-01-10T13:07:48.365Z,101709.61
2019-01-10T13:10:55.901Z,101717.45
2019-01-10T13:13:21.824Z,101711.98
2019-01-10T13:15:47.733Z,101715.74
2019-01-10T13:18:13.652Z,101717.49
2019-01-10T13:20:39.557Z,101718.86
2019-01-10T13:23:05.440Z,101719.94
2019-01-10T13:25:31.537Z,101716.62
2019-01-10T13:27:57.465Z,101713.41
2019-01-10T13:31:04.974Z,101717.75
2019-01-10T13:33:30.973Z,101718.48
2019-01-10T13:35:56.885Z,101721.38
2019-01-10T13:38:22.763Z,101719.73
2019-01-10T13:40:48.656Z,101718.13
2019-01-10T13:43:14.576Z,101717.48
2019-01-10T13:45:46.019Z,101722.25
2019-01-10T13:48:08.295Z,101715.16
2019-01-10T13:50:34.166Z,101714.73
2019-01-10T13:53:00.075Z,101717.91
2019-01-10T13:55:25.945Z,101709.88
2019-01-10T13:57:51.860Z,101715.72
2019-01-10T14:03:31.241Z,101713.95
2019-01-10T14:05:57.118Z,101703.08
2019-01-10T14:08:23.117Z,101709.58
2019-01-10T14:10:49.005Z,101713.95
2019-01-10T14:13:14.913Z,101708.83
2019-01-10T14:16:22.403Z,101714.92
2019-01-10T14:18:48.357Z,101711.50
2019-01-10T14:21:20.994Z,101706.24
2019-01-10T14:23:46.905Z,101711.45
2019-01-10T14:26:12.814Z,101713.73
2019-01-10T14:28:38.645Z,101706.52
2019-01-10T14:31:04.552Z,101716.89
2019-01-10T14:33:30.436Z,101707.05
2019-01-10T14:35:56.346Z,101715.46
2019-01-10T14:38:22.232Z,101707.08
2019-01-10T14:40:48.143Z,101709.63
2019-01-10T14:43:14.014Z,101715.27
2019-01-10T14:48:17.929Z,101720.56
2019-01-10T14:50:43.838Z,101721.91
2019-01-10T14:53:09.714Z,101722.92
2019-01-10T14:55:35.645Z,101725.41
2019-01-10T14:58:01.562Z,101727.61
2019-01-10T15:00:27.464Z,101727.61
2019-01-10T15:02:53.381Z,101726.62
2019-01-10T15:05:20.509Z,101734.34
2019-01-10T15:10:48.287Z,101732.06
2019-01-10T15:13:14.396Z,101737.50
2019-01-10T15:15:41.075Z,101735.77
2019-01-10T15:18:08.093Z,101735.72
2019-01-10T15:20:34.051Z,101729.08
2019-01-10T15:22:59.958Z,101736.27
2019-01-10T15:25:25.828Z,101728.90
2019-01-10T15:27:51.737Z,101730.57
2019-01-10T15:33:31.661Z,101727.52
2019-01-10T15:35:57.536Z,101727.61
2019-01-10T15:38:23.410Z,101733.28
2019-01-10T15:40:49.316Z,101724.53
2019-01-10T15:43:15.197Z,101725.37
2019-01-10T15:45:41.103Z,101726.39
2019-01-10T15:48:06.981Z,101720.41
2019-01-10T15:50:32.893Z,101726.14
2019-01-10T15:52:58.761Z,101725.72
2019-01-10T15:55:24.668Z,101731.34
2019-01-10T15:57:50.577Z,101729.59
2019-01-10T16:00:58.110Z,101725.77
2019-01-10T16:03:24.023Z,101728.28
2019-01-10T16:06:09.792Z,101724.19
2019-01-10T16:08:35.704Z,101724.19
2019-01-10T16:11:01.621Z,101723.86
2019-01-10T16:13:27.530Z,101734.69
2019-01-10T16:15:53.392Z,101724.30
2019-01-10T16:18:19.279Z,101721.69
2019-01-10T16:20:45.222Z,101723.59
2019-01-10T16:23:11.102Z,101723.95
2019-01-10T16:28:24.379Z,101725.59
2019-01-10T16:30:50.280Z,101731.03
2019-01-10T16:33:16.173Z,101728.50
2019-01-10T16:35:42.088Z,101721.99
2019-01-10T16:38:07.992Z,101718.01
2019-01-10T16:40:33.867Z,101718.50
2019-01-10T16:42:59.763Z,101721.25
2019-01-10T16:48:39.027Z,101709.47
2019-01-10T16:51:04.895Z,101715.13
2019-01-10T16:53:30.809Z,101710.92
2019-01-10T16:55:56.728Z,101714.40
2019-01-10T16:58:22.605Z,101713.09
2019-01-10T17:00:48.513Z,101715.20
2019-01-10T17:03:14.375Z,101709.41
2019-01-10T17:05:40.271Z,101708.23
2019-01-10T17:08:06.147Z,101704.27
2019-01-10T17:10:32.057Z,101711.28
2019-01-10T17:12:57.970Z,101707.45
2019-01-10T17:15:23.873Z,101706.20
2019-01-10T17:17:49.783Z,101700.33
2019-01-10T17:20:35.638Z,101700.47
2019-01-10T17:23:01.590Z,101704.23
2019-01-10T17:25:27.474Z,101697.91
2019-01-10T17:27:53.397Z,101702.83
2019-01-10T17:30:39.153Z,101706.02
2019-01-10T17:33:05.092Z,101705.09
2019-01-10T17:35:30.953Z,101704.84
2019-01-10T17:37:56.961Z,101705.39
2019-01-10T17:40:22.924Z,101706.77
2019-01-10T17:45:42.978Z,101710.16
2019-01-10T17:48:08.937Z,101700.74
2019-01-10T17:50:34.827Z,101701.63
2019-01-10T17:53:00.667Z,101706.73
2019-01-10T17:55:26.578Z,101695.94
2019-01-10T17:57:52.474Z,101697.48
2019-01-10T18:00:38.224Z,101692.09
2019-01-10T18:03:04.244Z,101694.25
2019-01-10T18:05:30.262Z,101685.80
2019-01-10T18:07:56.318Z,101697.18
2019-01-10T18:10:22.237Z,101693.70
2019-01-10T18:12:48.126Z,101690.80
2019-01-10T18:15:55.672Z,101692.55
2019-01-10T18:18:21.643Z,101691.13
2019-01-10T18:20:47.667Z,101693.41
2019-01-10T18:23:13.611Z,101692.53
2019-01-10T18:25:39.472Z,101692.81
2019-01-10T18:28:05.403Z,101694.22
2019-01-10T18:30:31.299Z,101724.33
2019-01-10T18:32:57.207Z,101682.41
2019-01-10T18:35:26.473Z,101688.66
2019-01-10T18:37:50.950Z,101693.06
2019-01-10T18:40:16.832Z,101698.34
2019-01-10T18:42:42.724Z,101699.53
2019-01-10T18:45:50.232Z,101695.56
2019-01-10T18:48:16.174Z,101692.97
2019-01-10T18:50:42.062Z,101687.37
2019-01-10T18:53:07.955Z,101689.75
2019-01-10T18:55:33.899Z,101690.49
2019-01-10T18:57:59.816Z,101687.92
2019-01-10T19:01:07.351Z,101689.62
2019-01-10T19:03:33.297Z,101696.98
2019-01-10T19:05:59.212Z,101691.81
2019-01-10T19:08:25.122Z,101703.05
2019-01-10T19:10:51.022Z,101703.78
2019-01-10T19:13:16.938Z,101689.02
2019-01-10T19:15:42.820Z,101691.05
2019-01-10T19:18:08.736Z,101701.50
2019-01-10T19:20:34.646Z,101696.69
2019-01-10T19:23:00.526Z,101704.22
2019-01-10T19:25:26.402Z,101715.70
2019-01-10T19:27:52.328Z,101721.27
2019-01-10T19:30:59.879Z,101727.36
2019-01-10T19:33:25.827Z,101724.02
2019-01-10T19:35:51.735Z,101726.81
2019-01-10T19:38:17.662Z,101718.27
2019-01-10T19:40:43.524Z,101722.95
2019-01-10T19:43:09.481Z,101723.67
2019-01-10T19:45:35.337Z,101730.02
2019-01-10T19:48:01.186Z,101733.39
2019-01-10T19:50:27.111Z,101725.86
2019-01-10T19:52:53.023Z,101718.53
2019-01-10T19:58:32.508Z,101715.59
2019-01-10T20:00:58.409Z,101712.75
2019-01-10T20:03:24.429Z,101720.56
2019-01-10T20:05:50.300Z,101710.28
2019-01-10T20:08:16.220Z,101708.53
2019-01-10T20:10:42.235Z,101712.82
2019-01-10T20:13:08.121Z,101711.96
2019-01-10T20:15:34.118Z,101704.78
2019-01-10T20:20:47.550Z,101714.19
2019-01-10T20:26:01.095Z,101709.94
2019-01-10T20:28:26.964Z,101718.34
2019-01-10T20:30:52.892Z,101710.97
2019-01-10T20:33:18.770Z,101710.84
2019-01-10T20:35:44.683Z,101707.59
2019-01-10T20:38:10.870Z,101703.19
2019-01-10T20:40:36.837Z,101703.98
2019-01-10T20:43:02.792Z,101705.62
2019-01-10T20:45:28.656Z,101702.67
2019-01-10T20:50:28.529Z,101702.50
2019-01-10T20:52:54.441Z,101697.16
2019-01-10T20:55:20.354Z,101688.88
2019-01-10T20:57:46.231Z,101697.05
2019-01-10T21:00:53.756Z,101693.47
2019-01-10T21:03:19.679Z,101694.95
2019-01-10T21:10:56.991Z,101695.56
2019-01-10T21:13:22.856Z,101697.55
2019-01-10T21:18:28.519Z,101696.42
2019-01-10T21:20:50.617Z,101688.27
2019-01-10T21:23:16.547Z,101690.14
2019-01-10T21:25:42.464Z,101691.34
2019-01-10T21:28:08.349Z,101689.19
2019-01-10T21:30:54.119Z,101680.66
2019-01-10T21:33:20.019Z,101686.38
2019-01-10T21:35:45.938Z,101683.70
2019-01-10T21:38:11.801Z,101678.75
2019-01-10T21:40:37.750Z,101683.92
2019-01-10T21:43:03.602Z,101679.14
2019-01-10T21:45:29.502Z,101680.21
2019-01-10T21:47:55.384Z,101682.38
2019-01-10T21:51:02.922Z,101685.30
2019-01-10T21:53:28.844Z,101683.95
2019-01-10T21:55:54.788Z,101683.55
2019-01-10T21:58:20.678Z,101684.30
2019-01-10T22:00:46.580Z,101686.17
2019-01-10T22:03:12.472Z,101693.72
2019-01-10T22:05:38.398Z,101692.88
2019-01-10T22:10:38.137Z,101694.73
2019-01-10T22:13:04.048Z,101696.42
2019-01-10T22:15:29.912Z,101695.27
2019-01-10T22:17:55.943Z,101704.00
2019-01-10T22:20:21.824Z,101703.05
2019-01-10T22:22:47.767Z,101702.74
2019-01-10T22:25:13.739Z,101694.92
2019-01-10T22:27:39.650Z,101701.86
2019-01-10T22:30:25.521Z,101697.83
2019-01-10T22:32:51.459Z,101705.34
2019-01-10T22:38:31.417Z,101696.36
2019-01-10T22:40:57.373Z,101696.93
2019-01-10T22:43:23.257Z,101691.31
2019-01-10T22:45:49.178Z,101687.26
2019-01-10T22:48:15.045Z,101686.80
2019-01-10T22:50:40.943Z,101691.23
2019-01-10T22:53:06.818Z,101682.67
2019-01-10T22:55:32.723Z,101676.81
2019-01-10T22:57:58.655Z,101677.55
2019-01-10T23:01:05.575Z,101670.83
2019-01-10T23:04:13.151Z,101670.73
2019-01-10T23:06:39.062Z,101671.27
2019-01-10T23:09:46.596Z,101667.36
2019-01-10T23:12:12.647Z,101666.62
2019-01-10T23:20:11.682Z,101665.11
2019-01-10T23:22:37.580Z,101663.64
2019-01-10T23:25:45.126Z,101655.98
2019-01-10T23:28:11.065Z,101659.75
2019-01-10T23:30:58.132Z,101658.36
2019-01-10T23:34:05.696Z,101654.05
2019-01-10T23:36:31.600Z,101653.87
2019-01-10T23:39:17.459Z,101646.20
2019-01-10T23:41:43.380Z,101639.10
2019-01-10T23:44:09.278Z,101635.72
2019-01-10T23:46:35.150Z,101631.27
2019-01-10T23:49:01.064Z,101625.38
2019-01-10T23:51:26.976Z,101620.92
2019-01-10T23:53:52.888Z,101622.59
2019-01-10T23:56:18.754Z,101621.34
2019-01-10T23:58:44.646Z,101609.72
